Heydar Aliyev — 9HFS7 — position and weather

sailwx.info

Track history (hours):
 
Tides and Currents Weather Stations Pressure Air Temp Water Temp Dewpoint Dewpoint Depression Visibility Wind Speed Wind Dir Waves Ship Positions

Heydar Aliyev

Last reported at 2016-Apr-26 21:22 UTC. Time now 2016-May-25 22:46 UTC.
Position N 02°10' E 101°60'.
Warning: this ship's position is 29 days out of date.

Length 274 m; draft 9.3 m.

Type: Tanker. MMSI: 215213000.

Date/timePositionNaut miles runAvg speedWind from/ knotsBaromVisibWave heightAir tempDewpointWater temp
2016-Apr-26 21:22N 02°10' E 101°60'1214.5
2016-Apr-26 20:33N 02°03' E 102°09'4413.8
2016-Apr-26 17:23N 01°42' E 102°47'1012.5
2016-Apr-26 16:33N 01°38' E 102°57'1412.3
2016-Apr-26 15:25N 01°29' E 103°08'3712.6
2016-Apr-26 12:30N 01°11' E 103°40'2 0.8
2016-Apr-26 10:08N 01°11' E 103°42'0 0.1
2016-Apr-26 09:32N 01°11' E 103°42'0 0.1
2016-Apr-26 08:32N 01°11' E 103°42'0 0.0
2016-Apr-26 07:29N 01°11' E 103°42'0 0.0
2016-Apr-26 06:29N 01°11' E 103°42'0 0.0
2016-Apr-26 05:29N 01°11' E 103°42'0 0.0
2016-Apr-26 04:29N 01°11' E 103°42'0 0.0
2016-Apr-26 03:32N 01°11' E 103°42'0 0.0
2016-Apr-26 02:32N 01°11' E 103°42'0 0.0
2016-Apr-26 00:29N 01°11' E 103°42'0 0.0
2016-Apr-25 23:32N 01°11' E 103°42'0 0.0
2016-Apr-25 21:32N 01°11' E 103°42'0 0.0
2016-Apr-25 20:29N 01°11' E 103°42'0 0.0
2016-Apr-25 19:26N 01°11' E 103°42'0 0.1
2016-Apr-25 18:23N 01°11' E 103°42'0 0.0
2016-Apr-25 17:20N 01°11' E 103°42'0 0.1
2016-Apr-25 16:29N 01°11' E 103°42'0 0.3
2016-Apr-25 15:29N 01°11' E 103°41'0 0.1
2016-Apr-25 14:32N 01°11' E 103°41'0 0.1
2016-Apr-25 13:26N 01°11' E 103°41'0 0.0
2016-Apr-25 12:29N 01°11' E 103°41'0 0.0
2016-Apr-25 11:29N 01°11' E 103°41'0 0.0
2016-Apr-25 10:32N 01°11' E 103°41'0 0.0
2016-Apr-25 09:29N 01°11' E 103°41'0 0.1
2016-Apr-25 08:32N 01°11' E 103°41'0 0.1
2016-Apr-25 07:29N 01°11' E 103°41'0 0.2
2016-Apr-25 06:23N 01°11' E 103°42'0 0.1
2016-Apr-25 05:20N 01°11' E 103°42'0 0.0
2016-Apr-25 04:32N 01°11' E 103°42'0 0.1
2016-Apr-25 03:23N 01°11' E 103°42'0 0.1
2016-Apr-25 02:26N 01°11' E 103°42'0 0.1
2016-Apr-25 01:32N 01°11' E 103°42'0 0.1
2016-Apr-25 00:23N 01°11' E 103°42'0 0.0
2016-Apr-24 22:29N 01°11' E 103°42'0 0.0
2016-Apr-24 21:32N 01°11' E 103°42'0 0.0
2016-Apr-24 20:32N 01°11' E 103°42'0 0.0
2016-Apr-24 19:29N 01°11' E 103°42'0 0.0
2016-Apr-24 18:32N 01°11' E 103°42'0 0.0
2016-Apr-24 17:26N 01°11' E 103°42'0 0.0
2016-Apr-24 16:20N 01°11' E 103°42'0 0.2
2016-Apr-24 15:20N 01°11' E 103°42'0 0.1
2016-Apr-24 14:11N 01°11' E 103°41'0 0.0
2016-Apr-24 13:26N 01°11' E 103°41'0 0.1
2016-Apr-24 12:32N 01°11' E 103°41'3 1.9
2016-Apr-24 11:10N 01°14' E 103°40'0 0.0
2016-Apr-24 10:28N 01°14' E 103°40'0 0.0
2016-Apr-24 09:22N 01°14' E 103°40'0 0.0
2016-Apr-24 08:28N 01°14' E 103°40'0 0.0
2016-Apr-24 07:25N 01°14' E 103°40'0 0.0
2016-Apr-24 06:16N 01°14' E 103°40'0 0.0
2016-Apr-24 05:31N 01°14' E 103°40'0 0.0
2016-Apr-24 04:28N 01°14' E 103°40'0 0.0
2016-Apr-24 03:31N 01°14' E 103°40'0 0.0
2016-Apr-24 02:28N 01°14' E 103°40'0 0.0
2016-Apr-24 01:28N 01°14' E 103°40'0 0.0
2016-Apr-24 00:28N 01°14' E 103°40'0 0.0
2016-Apr-23 23:31N 01°14' E 103°40'0 0.0
2016-Apr-23 21:22N 01°14' E 103°40'0 0.0
2016-Apr-23 20:31N 01°14' E 103°40'0 0.0
2016-Apr-23 19:19N 01°14' E 103°40'0 0.0
2016-Apr-23 18:25N 01°14' E 103°40'0 0.0
2016-Apr-23 17:13N 01°14' E 103°40'0 0.0
2016-Apr-23 16:31N 01°14' E 103°40'0 0.0
2016-Apr-23 14:19N 01°14' E 103°40'0 0.0
2016-Apr-23 13:25N 01°14' E 103°40'0 0.0
2016-Apr-23 12:13N 01°14' E 103°40'0 0.0
2016-Apr-23 11:16N 01°14' E 103°40'0 0.0
2016-Apr-23 09:16N 01°14' E 103°40'0 0.0
2016-Apr-23 08:31N 01°14' E 103°40'0 0.4
2016-Apr-23 07:33N 01°14' E 103°40'4 3.6
2016-Apr-23 06:33N 01°11' E 103°42'0 0.2
2016-Apr-23 04:31N 01°10' E 103°42'0 0.1
2016-Apr-23 03:25N 01°10' E 103°42'0 0.1
2016-Apr-23 02:31N 01°11' E 103°42'0 0.1
2016-Apr-23 01:31N 01°11' E 103°42'0 0.1
2016-Apr-23 00:31N 01°11' E 103°42'0 0.1
2016-Apr-22 23:28N 01°11' E 103°42'0 0.1
2016-Apr-22 22:31N 01°11' E 103°42'0 0.0
2016-Apr-22 21:31N 01°11' E 103°42'0 0.1
2016-Apr-22 20:28N 01°11' E 103°42'0 0.1
2016-Apr-22 19:19N 01°11' E 103°42'0 0.0
2016-Apr-22 18:31N 01°11' E 103°42'0 0.0
2016-Apr-22 17:31N 01°11' E 103°42'0 0.1
2016-Apr-22 16:16N 01°11' E 103°42'0 0.1
2016-Apr-22 15:25N 01°11' E 103°42'0 0.1
2016-Apr-22 14:31N 01°11' E 103°42'0 0.1
2016-Apr-22 13:28N 01°11' E 103°42'0 0.0
2016-Apr-22 12:31N 01°11' E 103°42'0 0.0
2016-Apr-22 11:31N 01°11' E 103°42'0 0.0
2016-Apr-22 10:28N 01°11' E 103°42'0 0.0
2016-Apr-22 09:28N 01°11' E 103°42'0 0.0
2016-Apr-22 08:31N 01°11' E 103°42'0 0.2
2016-Apr-22 07:31N 01°10' E 103°42'0 0.2
2016-Apr-22 06:31N 01°11' E 103°42'0 0.1
2016-Apr-22 05:22N 01°10' E 103°42'0 0.1
2016-Apr-22 04:31N 01°10' E 103°42'0 0.1
2016-Apr-22 03:25N 01°11' E 103°42'0 0.0
2016-Apr-22 02:16N 01°11' E 103°42'0 0.1
2016-Apr-22 01:31N 01°11' E 103°42'0 0.0
2016-Apr-21 23:22N 01°11' E 103°42'0 0.1
2016-Apr-21 22:28N 01°11' E 103°42'0 0.0
2016-Apr-21 21:31N 01°11' E 103°42'0 0.0
2016-Apr-21 20:28N 01°11' E 103°42'0 0.1
2016-Apr-21 19:25N 01°11' E 103°42'0 0.1
2016-Apr-21 18:31N 01°11' E 103°42'0 0.0
2016-Apr-21 17:31N 01°11' E 103°42'0 0.1
2016-Apr-21 16:25N 01°10' E 103°42'0 0.1
2016-Apr-21 15:31N 01°10' E 103°42'0 0.1
2016-Apr-21 14:28N 01°11' E 103°42'0 0.1
2016-Apr-21 13:31N 01°11' E 103°42'0 0.0
2016-Apr-21 12:31N 01°11' E 103°42'0 0.0
2016-Apr-21 11:28N 01°11' E 103°42'0 0.0
2016-Apr-21 10:31N 01°11' E 103°42'0 0.1
2016-Apr-21 09:25N 01°11' E 103°42'0 0.2
2016-Apr-21 08:16N 01°10' E 103°42'0 0.2
2016-Apr-21 07:13N 01°11' E 103°42'0 0.2
2016-Apr-21 06:28N 01°11' E 103°42'0 0.1
2016-Apr-21 05:28N 01°10' E 103°42'0 0.1
2016-Apr-21 04:28N 01°10' E 103°42'0 0.0
2016-Apr-21 03:31N 01°10' E 103°42'0 0.0
2016-Apr-21 02:28N 01°10' E 103°42'0 0.1
2016-Apr-21 01:31N 01°10' E 103°42'0 0.1
2016-Apr-21 00:28N 01°11' E 103°42'0 0.0
2016-Apr-20 23:25N 01°11' E 103°42'0 0.0
2016-Apr-20 22:25N 01°11' E 103°42'0 0.0
2016-Apr-20 21:28N 01°11' E 103°42'0 0.0
2016-Apr-20 20:31N 01°11' E 103°42'0 0.0
2016-Apr-20 19:28N 01°11' E 103°42'0 0.1
2016-Apr-20 18:22N 01°10' E 103°42'0 0.0
2016-Apr-20 17:28N 01°10' E 103°42'0 0.0
2016-Apr-20 16:13N 01°10' E 103°42'0 0.0
2016-Apr-20 14:31N 01°10' E 103°42'0 0.1
2016-Apr-20 13:31N 01°11' E 103°42'0 0.0
2016-Apr-20 12:31N 01°11' E 103°42'0 0.0
2016-Apr-20 11:25N 01°11' E 103°42'0 0.0
2016-Apr-20 10:31N 01°11' E 103°42'0 0.1
2016-Apr-20 09:28N 01°11' E 103°42'0 0.2
2016-Apr-20 08:31N 01°10' E 103°42'0 0.0
2016-Apr-20 07:25N 01°10' E 103°42'0 0.2
2016-Apr-20 06:19N 01°11' E 103°42'0 0.0
2016-Apr-20 05:28N 01°11' E 103°42'0 0.1
2016-Apr-20 04:31N 01°11' E 103°42'0 0.1
2016-Apr-20 03:28N 01°10' E 103°42'0 0.2
2016-Apr-20 02:32N 01°11' E 103°42'3 2.9
2016-Apr-20 01:33N 01°12' E 103°40'2 1.5
2016-Apr-20 00:28N 01°14' E 103°40'0 0.0
2016-Apr-19 23:25N 01°14' E 103°40'0 0.0
2016-Apr-19 22:25N 01°14' E 103°40'0 0.0
2016-Apr-19 21:31N 01°14' E 103°40'0 0.0
2016-Apr-19 20:28N 01°14' E 103°40'0 0.0
2016-Apr-19 19:22N 01°14' E 103°40'0 0.0
2016-Apr-19 18:31N 01°14' E 103°40'0 0.0
2016-Apr-19 17:25N 01°14' E 103°40'0 0.0
2016-Apr-19 16:31N 01°14' E 103°40'0 0.0
2016-Apr-19 14:10N 01°14' E 103°40'0 0.0
2016-Apr-19 13:25N 01°14' E 103°40'0 0.0
2016-Apr-19 12:28N 01°14' E 103°40'0 0.0
2016-Apr-19 11:19N 01°14' E 103°40'0 0.0
2016-Apr-19 10:28N 01°14' E 103°40'0 0.0
2016-Apr-19 09:28N 01°14' E 103°40'0 0.0
2016-Apr-19 08:25N 01°14' E 103°40'0 0.0
2016-Apr-19 07:19N 01°14' E 103°40'0 0.0
2016-Apr-19 05:31N 01°14' E 103°40'0 0.0
2016-Apr-19 04:31N 01°14' E 103°40'0 0.0
2016-Apr-19 03:31N 01°14' E 103°40'0 0.0
2016-Apr-19 02:31N 01°14' E 103°40'0 0.0
2016-Apr-19 01:13N 01°14' E 103°40'0 0.0
2016-Apr-19 00:31N 01°14' E 103°40'0 0.0
2016-Apr-18 22:31N 01°14' E 103°40'0 0.0
2016-Apr-18 21:16N 01°14' E 103°40'0 0.0
2016-Apr-18 18:33N 01°14' E 103°40'2 2.2
2016-Apr-18 17:33N 01°12' E 103°40'9 9.2
2016-Apr-18 16:33N 01°11' E 103°49'5 1.5
2016-Apr-18 13:05N 01°14' E 103°53'0 0.0
2016-Apr-18 11:29N 01°14' E 103°53'0 0.1
2016-Apr-18 10:32N 01°14' E 103°53'0 0.1
2016-Apr-18 09:32N 01°14' E 103°53'0 0.2
2016-Apr-18 08:32N 01°15' E 103°53'0 0.1
2016-Apr-18 07:32N 01°15' E 103°54'0 0.1
2016-Apr-18 06:32N 01°15' E 103°54'0 0.0
2016-Apr-18 05:32N 01°15' E 103°54'0 0.0
2016-Apr-18 04:32N 01°15' E 103°54'0 0.1
2016-Apr-18 03:26N 01°15' E 103°53'0 0.2
2016-Apr-18 02:23N 01°14' E 103°53'0 0.0
2016-Apr-18 01:32N 01°14' E 103°53'0 0.0
2016-Apr-17 23:14N 01°14' E 103°53'0 0.0
2016-Apr-17 22:32N 01°14' E 103°53'0 0.0
2016-Apr-17 21:26N 01°14' E 103°53'0 0.0
2016-Apr-17 20:32N 01°14' E 103°53'0 0.0
2016-Apr-17 19:32N 01°14' E 103°53'0 0.0
2016-Apr-17 18:32N 01°14' E 103°53'0 0.0
2016-Apr-17 17:23N 01°14' E 103°53'0 0.0
2016-Apr-17 16:32N 01°14' E 103°53'0 0.0
2016-Apr-17 15:32N 01°14' E 103°53'0 0.0
2016-Apr-17 14:32N 01°14' E 103°53'0 0.0
2016-Apr-17 13:32N 01°14' E 103°53'0 0.1
2016-Apr-17 12:32N 01°14' E 103°53'0 0.0
2016-Apr-17 11:32N 01°14' E 103°53'0 0.1
2016-Apr-17 10:32N 01°14' E 103°53'0 0.1
2016-Apr-17 09:23N 01°15' E 103°53'0 0.1
2016-Apr-17 08:32N 01°15' E 103°53'0 0.1
2016-Apr-17 07:32N 01°15' E 103°53'0 0.1
2016-Apr-17 06:26N 01°15' E 103°54'0 0.1
2016-Apr-17 05:26N 01°15' E 103°54'0 0.0
2016-Apr-17 04:32N 01°15' E 103°54'0 0.0
2016-Apr-17 03:32N 01°15' E 103°54'0 0.1
2016-Apr-17 02:32N 01°15' E 103°54'0 0.1
2016-Apr-17 01:32N 01°15' E 103°53'0 0.2
2016-Apr-17 00:23N 01°14' E 103°53'0 0.1
2016-Apr-16 23:32N 01°14' E 103°53'0 0.0
2016-Apr-16 22:32N 01°14' E 103°53'0 0.0
2016-Apr-16 21:32N 01°14' E 103°53'  
Track history (hours):
 
Tides and Currents Weather Stations Pressure Air Temp Water Temp Dewpoint Dewpoint Depression Visibility Wind Speed Wind Dir Waves Ship Positions

Heydar Aliyev

Last reported at 2016-Apr-26 21:22 UTC. Time now 2016-May-25 22:46 UTC.
Position N 02°10' E 101°60'.
Warning: this ship's position is 29 days out of date.

Length 274 m; draft 9.3 m.

Type: Tanker. MMSI: 215213000.

Date/timePositionNaut miles runAvg speedWind from/ knotsBaromVisibWave heightAir tempDewpointWater temp
2016-Apr-26 21:22N 02°10' E 101°60'1214.5
2016-Apr-26 20:33N 02°03' E 102°09'4413.8
2016-Apr-26 17:23N 01°42' E 102°47'1012.5
2016-Apr-26 16:33N 01°38' E 102°57'1412.3
2016-Apr-26 15:25N 01°29' E 103°08'3712.6
2016-Apr-26 12:30N 01°11' E 103°40'2 0.8
2016-Apr-26 10:08N 01°11' E 103°42'0 0.1
2016-Apr-26 09:32N 01°11' E 103°42'0 0.1
2016-Apr-26 08:32N 01°11' E 103°42'0 0.0
2016-Apr-26 07:29N 01°11' E 103°42'0 0.0
2016-Apr-26 06:29N 01°11' E 103°42'0 0.0
2016-Apr-26 05:29N 01°11' E 103°42'0 0.0
2016-Apr-26 04:29N 01°11' E 103°42'0 0.0
2016-Apr-26 03:32N 01°11' E 103°42'0 0.0
2016-Apr-26 02:32N 01°11' E 103°42'0 0.0
2016-Apr-26 00:29N 01°11' E 103°42'0 0.0
2016-Apr-25 23:32N 01°11' E 103°42'0 0.0
2016-Apr-25 21:32N 01°11' E 103°42'0 0.0
2016-Apr-25 20:29N 01°11' E 103°42'0 0.0
2016-Apr-25 19:26N 01°11' E 103°42'0 0.1
2016-Apr-25 18:23N 01°11' E 103°42'0 0.0
2016-Apr-25 17:20N 01°11' E 103°42'0 0.1
2016-Apr-25 16:29N 01°11' E 103°42'0 0.3
2016-Apr-25 15:29N 01°11' E 103°41'0 0.1
2016-Apr-25 14:32N 01°11' E 103°41'0 0.1
2016-Apr-25 13:26N 01°11' E 103°41'0 0.0
2016-Apr-25 12:29N 01°11' E 103°41'0 0.0
2016-Apr-25 11:29N 01°11' E 103°41'0 0.0
2016-Apr-25 10:32N 01°11' E 103°41'0 0.0
2016-Apr-25 09:29N 01°11' E 103°41'0 0.1
2016-Apr-25 08:32N 01°11' E 103°41'0 0.1
2016-Apr-25 07:29N 01°11' E 103°41'0 0.2
2016-Apr-25 06:23N 01°11' E 103°42'0 0.1
2016-Apr-25 05:20N 01°11' E 103°42'0 0.0
2016-Apr-25 04:32N 01°11' E 103°42'0 0.1
2016-Apr-25 03:23N 01°11' E 103°42'0 0.1
2016-Apr-25 02:26N 01°11' E 103°42'0 0.1
2016-Apr-25 01:32N 01°11' E 103°42'0 0.1
2016-Apr-25 00:23N 01°11' E 103°42'0 0.0
2016-Apr-24 22:29N 01°11' E 103°42'0 0.0
2016-Apr-24 21:32N 01°11' E 103°42'0 0.0
2016-Apr-24 20:32N 01°11' E 103°42'0 0.0
2016-Apr-24 19:29N 01°11' E 103°42'0 0.0
2016-Apr-24 18:32N 01°11' E 103°42'0 0.0
2016-Apr-24 17:26N 01°11' E 103°42'0 0.0
2016-Apr-24 16:20N 01°11' E 103°42'0 0.2
2016-Apr-24 15:20N 01°11' E 103°42'0 0.1
2016-Apr-24 14:11N 01°11' E 103°41'0 0.0
2016-Apr-24 13:26N 01°11' E 103°41'0 0.1
2016-Apr-24 12:32N 01°11' E 103°41'3 1.9
2016-Apr-24 11:10N 01°14' E 103°40'0 0.0
2016-Apr-24 10:28N 01°14' E 103°40'0 0.0
2016-Apr-24 09:22N 01°14' E 103°40'0 0.0
2016-Apr-24 08:28N 01°14' E 103°40'0 0.0
2016-Apr-24 07:25N 01°14' E 103°40'0 0.0
2016-Apr-24 06:16N 01°14' E 103°40'0 0.0
2016-Apr-24 05:31N 01°14' E 103°40'0 0.0
2016-Apr-24 04:28N 01°14' E 103°40'0 0.0
2016-Apr-24 03:31N 01°14' E 103°40'0 0.0
2016-Apr-24 02:28N 01°14' E 103°40'0 0.0
2016-Apr-24 01:28N 01°14' E 103°40'0 0.0
2016-Apr-24 00:28N 01°14' E 103°40'0 0.0
2016-Apr-23 23:31N 01°14' E 103°40'0 0.0
2016-Apr-23 21:22N 01°14' E 103°40'0 0.0
2016-Apr-23 20:31N 01°14' E 103°40'0 0.0
2016-Apr-23 19:19N 01°14' E 103°40'0 0.0
2016-Apr-23 18:25N 01°14' E 103°40'0 0.0
2016-Apr-23 17:13N 01°14' E 103°40'0 0.0
2016-Apr-23 16:31N 01°14' E 103°40'0 0.0
2016-Apr-23 14:19N 01°14' E 103°40'0 0.0
2016-Apr-23 13:25N 01°14' E 103°40'0 0.0
2016-Apr-23 12:13N 01°14' E 103°40'0 0.0
2016-Apr-23 11:16N 01°14' E 103°40'0 0.0
2016-Apr-23 09:16N 01°14' E 103°40'0 0.0
2016-Apr-23 08:31N 01°14' E 103°40'0 0.4
2016-Apr-23 07:33N 01°14' E 103°40'4 3.6
2016-Apr-23 06:33N 01°11' E 103°42'0 0.2
2016-Apr-23 04:31N 01°10' E 103°42'0 0.1
2016-Apr-23 03:25N 01°10' E 103°42'0 0.1
2016-Apr-23 02:31N 01°11' E 103°42'0 0.1
2016-Apr-23 01:31N 01°11' E 103°42'0 0.1
2016-Apr-23 00:31N 01°11' E 103°42'0 0.1
2016-Apr-22 23:28N 01°11' E 103°42'0 0.1
2016-Apr-22 22:31N 01°11' E 103°42'0 0.0
2016-Apr-22 21:31N 01°11' E 103°42'0 0.1
2016-Apr-22 20:28N 01°11' E 103°42'0 0.1
2016-Apr-22 19:19N 01°11' E 103°42'0 0.0
2016-Apr-22 18:31N 01°11' E 103°42'0 0.0
2016-Apr-22 17:31N 01°11' E 103°42'0 0.1
2016-Apr-22 16:16N 01°11' E 103°42'0 0.1
2016-Apr-22 15:25N 01°11' E 103°42'0 0.1
2016-Apr-22 14:31N 01°11' E 103°42'0 0.1
2016-Apr-22 13:28N 01°11' E 103°42'0 0.0
2016-Apr-22 12:31N 01°11' E 103°42'0 0.0
2016-Apr-22 11:31N 01°11' E 103°42'0 0.0
2016-Apr-22 10:28N 01°11' E 103°42'0 0.0
2016-Apr-22 09:28N 01°11' E 103°42'0 0.0
2016-Apr-22 08:31N 01°11' E 103°42'0 0.2
2016-Apr-22 07:31N 01°10' E 103°42'0 0.2
2016-Apr-22 06:31N 01°11' E 103°42'0 0.1
2016-Apr-22 05:22N 01°10' E 103°42'0 0.1
2016-Apr-22 04:31N 01°10' E 103°42'0 0.1
2016-Apr-22 03:25N 01°11' E 103°42'0 0.0
2016-Apr-22 02:16N 01°11' E 103°42'0 0.1
2016-Apr-22 01:31N 01°11' E 103°42'0 0.0
2016-Apr-21 23:22N 01°11' E 103°42'0 0.1
2016-Apr-21 22:28N 01°11' E 103°42'0 0.0
2016-Apr-21 21:31N 01°11' E 103°42'0 0.0
2016-Apr-21 20:28N 01°11' E 103°42'0 0.1
2016-Apr-21 19:25N 01°11' E 103°42'0 0.1
2016-Apr-21 18:31N 01°11' E 103°42'0 0.0
2016-Apr-21 17:31N 01°11' E 103°42'0 0.1
2016-Apr-21 16:25N 01°10' E 103°42'0 0.1
2016-Apr-21 15:31N 01°10' E 103°42'0 0.1
2016-Apr-21 14:28N 01°11' E 103°42'0 0.1
2016-Apr-21 13:31N 01°11' E 103°42'0 0.0
2016-Apr-21 12:31N 01°11' E 103°42'0 0.0
2016-Apr-21 11:28N 01°11' E 103°42'0 0.0
2016-Apr-21 10:31N 01°11' E 103°42'0 0.1
2016-Apr-21 09:25N 01°11' E 103°42'0 0.2
2016-Apr-21 08:16N 01°10' E 103°42'0 0.2
2016-Apr-21 07:13N 01°11' E 103°42'0 0.2
2016-Apr-21 06:28N 01°11' E 103°42'0 0.1
2016-Apr-21 05:28N 01°10' E 103°42'0 0.1
2016-Apr-21 04:28N 01°10' E 103°42'0 0.0
2016-Apr-21 03:31N 01°10' E 103°42'0 0.0
2016-Apr-21 02:28N 01°10' E 103°42'0 0.1
2016-Apr-21 01:31N 01°10' E 103°42'0 0.1
2016-Apr-21 00:28N 01°11' E 103°42'0 0.0
2016-Apr-20 23:25N 01°11' E 103°42'0 0.0
2016-Apr-20 22:25N 01°11' E 103°42'0 0.0
2016-Apr-20 21:28N 01°11' E 103°42'0 0.0
2016-Apr-20 20:31N 01°11' E 103°42'0 0.0
2016-Apr-20 19:28N 01°11' E 103°42'0 0.1
2016-Apr-20 18:22N 01°10' E 103°42'0 0.0
2016-Apr-20 17:28N 01°10' E 103°42'0 0.0
2016-Apr-20 16:13N 01°10' E 103°42'0 0.0
2016-Apr-20 14:31N 01°10' E 103°42'0 0.1
2016-Apr-20 13:31N 01°11' E 103°42'0 0.0
2016-Apr-20 12:31N 01°11' E 103°42'0 0.0
2016-Apr-20 11:25N 01°11' E 103°42'0 0.0
2016-Apr-20 10:31N 01°11' E 103°42'0 0.1
2016-Apr-20 09:28N 01°11' E 103°42'0 0.2
2016-Apr-20 08:31N 01°10' E 103°42'0 0.0
2016-Apr-20 07:25N 01°10' E 103°42'0 0.2
2016-Apr-20 06:19N 01°11' E 103°42'0 0.0
2016-Apr-20 05:28N 01°11' E 103°42'0 0.1
2016-Apr-20 04:31N 01°11' E 103°42'0 0.1
2016-Apr-20 03:28N 01°10' E 103°42'0 0.2
2016-Apr-20 02:32N 01°11' E 103°42'3 2.9
2016-Apr-20 01:33N 01°12' E 103°40'2 1.5
2016-Apr-20 00:28N 01°14' E 103°40'0 0.0
2016-Apr-19 23:25N 01°14' E 103°40'0 0.0
2016-Apr-19 22:25N 01°14' E 103°40'0 0.0
2016-Apr-19 21:31N 01°14' E 103°40'0 0.0
2016-Apr-19 20:28N 01°14' E 103°40'0 0.0
2016-Apr-19 19:22N 01°14' E 103°40'0 0.0
2016-Apr-19 18:31N 01°14' E 103°40'0 0.0
2016-Apr-19 17:25N 01°14' E 103°40'0 0.0
2016-Apr-19 16:31N 01°14' E 103°40'0 0.0
2016-Apr-19 14:10N 01°14' E 103°40'0 0.0
2016-Apr-19 13:25N 01°14' E 103°40'0 0.0
2016-Apr-19 12:28N 01°14' E 103°40'0 0.0
2016-Apr-19 11:19N 01°14' E 103°40'0 0.0
2016-Apr-19 10:28N 01°14' E 103°40'0 0.0
2016-Apr-19 09:28N 01°14' E 103°40'0 0.0
2016-Apr-19 08:25N 01°14' E 103°40'0 0.0
2016-Apr-19 07:19N 01°14' E 103°40'0 0.0
2016-Apr-19 05:31N 01°14' E 103°40'0 0.0
2016-Apr-19 04:31N 01°14' E 103°40'0 0.0
2016-Apr-19 03:31N 01°14' E 103°40'0 0.0
2016-Apr-19 02:31N 01°14' E 103°40'0 0.0
2016-Apr-19 01:13N 01°14' E 103°40'0 0.0
2016-Apr-19 00:31N 01°14' E 103°40'0 0.0
2016-Apr-18 22:31N 01°14' E 103°40'0 0.0
2016-Apr-18 21:16N 01°14' E 103°40'0 0.0
2016-Apr-18 18:33N 01°14' E 103°40'2 2.2
2016-Apr-18 17:33N 01°12' E 103°40'9 9.2
2016-Apr-18 16:33N 01°11' E 103°49'5 1.5
2016-Apr-18 13:05N 01°14' E 103°53'0 0.0
2016-Apr-18 11:29N 01°14' E 103°53'0 0.1
2016-Apr-18 10:32N 01°14' E 103°53'0 0.1
2016-Apr-18 09:32N 01°14' E 103°53'0 0.2
2016-Apr-18 08:32N 01°15' E 103°53'0 0.1
2016-Apr-18 07:32N 01°15' E 103°54'0 0.1
2016-Apr-18 06:32N 01°15' E 103°54'0 0.0
2016-Apr-18 05:32N 01°15' E 103°54'0 0.0
2016-Apr-18 04:32N 01°15' E 103°54'0 0.1
2016-Apr-18 03:26N 01°15' E 103°53'0 0.2
2016-Apr-18 02:23N 01°14' E 103°53'0 0.0
2016-Apr-18 01:32N 01°14' E 103°53'0 0.0
2016-Apr-17 23:14N 01°14' E 103°53'0 0.0
2016-Apr-17 22:32N 01°14' E 103°53'0 0.0
2016-Apr-17 21:26N 01°14' E 103°53'0 0.0
2016-Apr-17 20:32N 01°14' E 103°53'0 0.0
2016-Apr-17 19:32N 01°14' E 103°53'0 0.0
2016-Apr-17 18:32N 01°14' E 103°53'0 0.0
2016-Apr-17 17:23N 01°14' E 103°53'0 0.0
2016-Apr-17 16:32N 01°14' E 103°53'0 0.0
2016-Apr-17 15:32N 01°14' E 103°53'0 0.0
2016-Apr-17 14:32N 01°14' E 103°53'0 0.0
2016-Apr-17 13:32N 01°14' E 103°53'0 0.1
2016-Apr-17 12:32N 01°14' E 103°53'0 0.0
2016-Apr-17 11:32N 01°14' E 103°53'0 0.1
2016-Apr-17 10:32N 01°14' E 103°53'0 0.1
2016-Apr-17 09:23N 01°15' E 103°53'0 0.1
2016-Apr-17 08:32N 01°15' E 103°53'0 0.1
2016-Apr-17 07:32N 01°15' E 103°53'0 0.1
2016-Apr-17 06:26N 01°15' E 103°54'0 0.1
2016-Apr-17 05:26N 01°15' E 103°54'0 0.0
2016-Apr-17 04:32N 01°15' E 103°54'0 0.0
2016-Apr-17 03:32N 01°15' E 103°54'0 0.1
2016-Apr-17 02:32N 01°15' E 103°54'0 0.1
2016-Apr-17 01:32N 01°15' E 103°53'0 0.2
2016-Apr-17 00:23N 01°14' E 103°53'0 0.1
2016-Apr-16 23:32N 01°14' E 103°53'0 0.0
2016-Apr-16 22:32N 01°14' E 103°53'0 0.0
2016-Apr-16 21:32N 01°14' E 103°53'  

Dump ship's entire track history